Dalton, New Hampshire
Current Conditions -  °F | °C
As of 1:52 AM on Wednesday 22 Oct 2014 (Local Time) from KHIE Reporting Station
Moderate Rain Moderate Rain  
Wind Chill: 42°   Ceiling: 6000
Heat Index: 46°   Visibility: 8mi
Dew Point: 42°   Wind: 7mph
Humidity: 86%   Direction: 50°NE
Pressure: 30.09"   Gusts: NA
Location:  44.3374°N, 71.528°W
Report Text: KHIE 220552Z AUTO 05006KT 8SM RA OVC060 08/06 A3009 RMK AO2 RAB24 SLP195 P0003 60014 T00780056 10089 20072 50001
Loading
Personal Weather Stations






























Interactive Weather Map
Tropical Storm Tracking
New forecast layout! Learn more

10-Day Weather Forecast

Advertisements
Track Severe Weather on mobile